Time;durP1;ratioP1;P1;durP2;ratioP2;P2;SDS_P1;SDS_P2;PMS_P1;PMS_P2;Temp;Humidity;BMP_temperature;BMP_pressure;BME280_temperature;BME280_humidity;BME280_pressure;Samples;Min_cycle;Max_cycle;Signal;HPM_P1;HPM_P2
2023/01/11 00:03:32;;;;;;;;;;;;;;;18.67;35.04;95959.38;10377052;28;2272;-45
2023/01/11 00:08:32;;;;;;;;;;;;;;;18.64;34.60;95946.78;10392091;28;2333;-46
2023/01/11 00:13:33;;;;;;;;;;;;;;;18.62;34.57;95938.38;10381959;28;2261;-47
2023/01/11 00:18:33;;;;;;;;;;;;;;;18.59;34.75;95944.13;10380646;28;2313;-45
2023/01/11 00:23:33;;;;;;;;;;;;;;;18.55;34.62;95937.81;10385443;28;2005;-46
2023/01/11 00:28:34;;;;;;;;;;;;;;;18.53;34.56;95924.94;10383846;28;2316;-45
2023/01/11 00:33:34;;;;;;;;;;;;;;;18.53;34.70;95921.53;10385469;28;2342;-45
2023/01/11 00:38:45;;;;;;;;;;;;;;;18.53;34.77;95919.69;10385019;28;2315;-44
2023/01/11 00:49:04;;;;;;;;;;;;;;;18.45;34.61;95903.66;10384526;28;2291;-45
2023/01/11 00:54:05;;;;;;;;;;;;;;;18.44;34.79;95902.09;10384320;28;2328;-45
2023/01/11 00:59:05;;;;;;;;;;;;;;;18.40;34.62;95903.59;10384269;28;2291;-47
2023/01/11 01:04:05;;;;;;;;;;;;;;;18.35;34.65;95907.00;10384376;28;2315;-44
2023/01/11 01:09:05;;;;;;;;;;;;;;;18.36;34.64;95907.78;10382957;28;2291;-45
2023/01/11 01:14:24;;;;;;;;;;;;;;;18.32;34.75;95912.75;10387090;28;2315;-44
2023/01/11 01:19:26;;;;;;;;;;;;;;;18.31;34.50;95918.25;10386518;28;2359;-47
2023/01/11 01:24:30;;;;;;;;;;;;;;;18.30;34.66;95927.94;10383005;28;2280;-47
2023/01/11 01:29:30;;;;;;;;;;;;;;;18.28;34.85;95921.41;10381250;28;2300;-46
2023/01/11 01:34:30;;;;;;;;;;;;;;;18.27;34.63;95922.44;10383057;28;2348;-44
2023/01/11 01:39:30;;;;;;;;;;;;;;;18.25;34.66;95919.25;10383602;28;2314;-44
2023/01/11 01:44:49;;;;;;;;;;;;;;;18.21;34.87;95920.81;10381593;28;2018;-45
2023/01/11 01:49:49;;;;;;;;;;;;;;;18.20;34.93;95913.97;10383990;28;2450;-44
2023/01/11 01:54:50;;;;;;;;;;;;;;;18.16;34.75;95905.84;10381370;28;2190;-44
2023/01/11 01:59:50;;;;;;;;;;;;;;;18.14;34.81;95902.66;10382389;28;2265;-45
2023/01/11 02:04:51;;;;;;;;;;;;;;;18.09;34.96;95900.03;10380886;28;2010;-45
2023/01/11 02:09:56;;;;;;;;;;;;;;;18.09;34.71;95894.78;10396854;28;2447;-44
2023/01/11 02:14:58;;;;;;;;;;;;;;;18.08;34.88;95897.66;10397945;28;2280;-45
2023/01/11 02:20:07;;;;;;;;;;;;;;;18.06;34.74;95889.25;10396220;28;2381;-45
2023/01/11 02:25:27;;;;;;;;;;;;;;;18.03;34.91;95881.91;10377400;28;2302;-45
2023/01/11 02:30:36;;;;;;;;;;;;;;;18.03;35.09;95876.66;10379682;28;2279;-45
2023/01/11 02:35:48;;;;;;;;;;;;;;;18.00;34.77;95864.03;10379587;28;2287;-44
2023/01/11 02:40:48;;;;;;;;;;;;;;;17.99;35.08;95865.84;10381880;28;2309;-45
2023/01/11 02:46:04;;;;;;;;;;;;;;;17.97;35.00;95861.94;10379010;28;2261;-45
2023/01/11 02:51:05;;;;;;;;;;;;;;;17.93;34.82;95858.25;10393124;28;2070;-44
2023/01/11 02:56:06;;;;;;;;;;;;;;;17.91;34.82;95849.84;10378577;28;2333;-44
2023/01/11 03:01:07;;;;;;;;;;;;;;;17.90;34.93;95843.78;10393606;28;2444;-44
2023/01/11 03:06:10;;;;;;;;;;;;;;;17.89;35.04;95834.34;10379129;28;2324;-46
2023/01/11 03:11:13;;;;;;;;;;;;;;;17.85;35.03;95828.81;10382263;28;2303;-45
2023/01/11 03:16:29;;;;;;;;;;;;;;;17.84;34.96;95829.06;10396227;28;2294;-47
2023/01/11 03:21:49;;;;;;;;;;;;;;;17.82;35.05;95821.47;10383096;28;2383;-45
2023/01/11 03:27:01;;;;;;;;;;;;;;;17.79;35.04;95803.59;10408368;28;2297;-45
2023/01/11 03:32:12;;;;;;;;;;;;;;;17.79;35.21;95800.19;10391431;28;2294;-44
2023/01/11 03:37:15;;;;;;;;;;;;;;;17.79;35.09;95790.50;10377946;28;2257;-45
2023/01/11 03:42:15;;;;;;;;;;;;;;;17.75;35.05;95778.94;10394405;28;2281;-44
2023/01/11 03:47:16;;;;;;;;;;;;;;;17.75;35.04;95778.94;10376713;28;2310;-44
2023/01/11 03:52:16;;;;;;;;;;;;;;;17.73;35.10;95772.38;10376634;28;2309;-44
2023/01/11 03:57:23;;;;;;;;;;;;;;;17.72;35.20;95761.09;10392520;28;2336;-45
2023/01/11 04:02:24;;;;;;;;;;;;;;;17.69;35.26;95756.38;10377265;28;2278;-46
2023/01/11 04:07:24;;;;;;;;;;;;;;;17.71;35.19;95763.97;10378155;28;2010;-45
2023/01/11 04:12:25;;;;;;;;;;;;;;;17.68;35.29;95754.78;10380810;28;2285;-44
2023/01/11 04:17:25;;;;;;;;;;;;;;;17.69;35.30;95755.56;10381594;28;2316;-46
2023/01/11 04:22:25;;;;;;;;;;;;;;;17.67;35.28;95745.34;10375271;28;2035;-45
2023/01/11 04:27:26;;;;;;;;;;;;;;;17.67;35.20;95753.22;10378997;28;2013;-46
2023/01/11 04:32:26;;;;;;;;;;;;;;;17.65;35.30;95749.25;10377270;28;2261;-45
2023/01/11 04:37:26;;;;;;;;;;;;;;;17.65;35.36;95755.31;10373459;28;2310;-44
2023/01/11 04:42:26;;;;;;;;;;;;;;;17.66;35.24;95743.75;10378281;28;2335;-45
2023/01/11 04:47:27;;;;;;;;;;;;;;;17.61;35.35;95735.88;10376058;28;2030;-45
2023/01/11 04:52:27;;;;;;;;;;;;;;;17.60;35.31;95739.53;10376421;28;2069;-45
2023/01/11 04:57:27;;;;;;;;;;;;;;;17.62;35.32;95736.69;10375380;28;2272;-45
2023/01/11 05:02:27;;;;;;;;;;;;;;;17.57;35.29;95732.19;10374342;28;2073;-44
2023/01/11 05:07:28;;;;;;;;;;;;;;;17.58;35.44;95723.28;10381893;28;2348;-46
2023/01/11 05:12:28;;;;;;;;;;;;;;;17.62;35.37;95724.34;10394305;28;2349;-44
2023/01/11 05:17:28;;;;;;;;;;;;;;;17.63;34.89;95725.94;10382330;28;2329;-43
2023/01/11 05:22:28;;;;;;;;;;;;;;;17.70;35.44;95720.47;10382859;28;2257;-45
2023/01/11 05:27:29;;;;;;;;;;;;;;;17.75;35.16;95707.38;10382911;28;2283;-44
2023/01/11 05:32:29;;;;;;;;;;;;;;;17.80;35.29;95713.41;10380203;28;2260;-45
2023/01/11 05:37:29;;;;;;;;;;;;;;;17.87;35.06;95711.34;10382206;28;2373;-44
2023/01/11 05:42:30;;;;;;;;;;;;;;;17.92;34.96;95715.03;10384334;28;2335;-46
2023/01/11 05:47:30;;;;;;;;;;;;;;;17.98;34.57;95717.41;10383914;28;2431;-44
2023/01/11 05:52:30;;;;;;;;;;;;;;;18.03;34.15;95709.59;10381124;28;2262;-44
2023/01/11 05:57:30;;;;;;;;;;;;;;;18.10;34.44;95709.31;10381736;28;2314;-45
2023/01/11 06:02:31;;;;;;;;;;;;;;;18.13;34.13;95714.06;10380348;28;2360;-45
2023/01/11 06:07:31;;;;;;;;;;;;;;;18.14;33.60;95713.78;10380233;28;2292;-45
2023/01/11 06:12:31;;;;;;;;;;;;;;;18.19;33.63;95718.28;10383298;28;2342;-44
2023/01/11 06:17:31;;;;;;;;;;;;;;;18.21;33.48;95705.69;10382209;28;2034;-44
2023/01/11 06:22:32;;;;;;;;;;;;;;;18.24;33.59;95705.94;10380351;28;2338;-45
2023/01/11 06:27:32;;;;;;;;;;;;;;;18.27;33.54;95699.38;10381194;28;2352;-46
2023/01/11 06:32:32;;;;;;;;;;;;;;;18.28;33.21;95696.50;10379642;28;2211;-44
2023/01/11 06:37:32;;;;;;;;;;;;;;;18.30;33.20;95689.16;10378833;28;2352;-45
2023/01/11 06:42:33;;;;;;;;;;;;;;;18.33;33.12;95693.91;10381157;28;2125;-45
2023/01/11 06:47:33;;;;;;;;;;;;;;;18.35;32.99;95707.53;10379747;28;2318;-44
2023/01/11 06:52:33;;;;;;;;;;;;;;;18.37;32.81;95710.69;10378455;28;2253;-45
2023/01/11 06:57:34;;;;;;;;;;;;;;;18.38;32.79;95703.63;10374181;28;2315;-45
2023/01/11 07:02:34;;;;;;;;;;;;;;;18.41;32.89;95706.50;10379143;28;2302;-46
2023/01/11 07:07:34;;;;;;;;;;;;;;;18.44;32.79;95713.09;10376726;28;2393;-47
2023/01/11 07:12:35;;;;;;;;;;;;;;;18.45;32.96;95714.66;10381499;28;2321;-44
2023/01/11 07:17:35;;;;;;;;;;;;;;;18.46;32.72;95711.81;10382194;28;2305;-45
2023/01/11 07:22:35;;;;;;;;;;;;;;;18.48;32.85;95714.94;10377601;28;2096;-45
2023/01/11 07:27:36;;;;;;;;;;;;;;;18.48;33.19;95712.31;10378975;28;2284;-46
2023/01/11 07:32:36;;;;;;;;;;;;;;;18.52;33.56;95704.72;10376948;28;2254;-46
2023/01/11 07:37:36;;;;;;;;;;;;;;;18.54;33.63;95708.66;10378971;28;2317;-47
2023/01/11 07:47:56;;;;;;;;;;;;;;;18.67;34.74;95704.72;10380666;28;2298;-45
2023/01/11 07:52:56;;;;;;;;;;;;;;;18.65;34.83;95702.34;10392237;28;2309;-47
2023/01/11 07:57:56;;;;;;;;;;;;;;;18.61;34.70;95706.53;10376619;28;2358;-47
2023/01/11 08:02:56;;;;;;;;;;;;;;;18.55;34.35;95696.31;10377161;28;2307;-45
2023/01/11 08:07:57;;;;;;;;;;;;;;;18.52;34.45;95691.59;10376909;28;2700;-45
2023/01/11 08:18:16;;;;;;;;;;;;;;;18.60;35.26;95693.69;10384976;28;2373;-45
2023/01/11 08:23:17;;;;;;;;;;;;;;;18.54;35.14;95679.00;10376118;28;2432;-48
2023/01/11 08:28:17;;;;;;;;;;;;;;;18.48;34.86;95675.59;10379569;28;2337;-47
2023/01/11 08:33:17;;;;;;;;;;;;;;;18.47;35.23;95675.81;10376837;28;2292;-44
2023/01/11 08:38:17;;;;;;;;;;;;;;;18.46;35.10;95669.00;10376360;28;2084;-48
2023/01/11 08:43:18;;;;;;;;;;;;;;;18.50;35.49;95670.06;10382370;28;2359;-45
2023/01/11 08:48:18;;;;;;;;;;;;;;;18.47;35.47;95662.69;10387090;28;2344;-45
2023/01/11 08:53:19;;;;;;;;;;;;;;;18.45;35.32;95655.09;10385240;28;2304;-47
2023/01/11 08:58:20;;;;;;;;;;;;;;;18.45;35.71;95654.31;10385453;28;2305;-47
2023/01/11 09:03:20;;;;;;;;;;;;;;;18.41;35.66;95650.59;10383320;28;2277;-45
2023/01/11 09:08:20;;;;;;;;;;;;;;;18.43;35.57;95644.06;10384788;28;2287;-45
2023/01/11 09:13:21;;;;;;;;;;;;;;;18.41;35.71;95638.28;10383526;28;2336;-48
2023/01/11 09:18:21;;;;;;;;;;;;;;;18.42;35.49;95639.06;10390132;28;2269;-45
2023/01/11 09:23:21;;;;;;;;;;;;;;;18.38;35.80;95638.78;10383838;28;2336;-44
2023/01/11 09:28:22;;;;;;;;;;;;;;;18.41;35.64;95637.47;10382933;28;2283;-46
2023/01/11 09:33:22;;;;;;;;;;;;;;;18.35;35.60;95638.53;10381928;28;2353;-46
2023/01/11 09:38:27;;;;;;;;;;;;;;;18.35;35.77;95638.53;10385353;28;2328;-46
2023/01/11 09:43:29;;;;;;;;;;;;;;;18.33;35.86;95640.63;10383963;28;2294;-47
2023/01/11 09:49:02;;;;;;;;;;;;;;;18.30;35.85;95630.66;10382070;28;2023;-45
2023/01/11 09:54:06;;;;;;;;;;;;;;;18.28;35.99;95636.16;10379044;28;2359;-46
2023/01/11 09:59:21;;;;;;;;;;;;;;;18.22;35.75;95639.81;10380865;28;2293;-46
2023/01/11 10:04:31;;;;;;;;;;;;;;;18.21;35.77;95640.09;10382372;28;2265;-45
2023/01/11 10:09:50;;;;;;;;;;;;;;;18.15;35.93;95634.06;10381001;28;2326;-48
2023/01/11 10:15:04;;;;;;;;;;;;;;;18.14;35.94;95642.97;10394218;28;2294;-46
2023/01/11 10:20:12;;;;;;;;;;;;;;;18.13;35.86;95638.78;10383206;28;2336;-46
2023/01/11 10:25:15;;;;;;;;;;;;;;;18.16;36.06;95632.19;10380947;28;2349;-48
2023/01/11 10:31:10;;;;;;;;;;;;;;;18.21;36.09;95629.59;10380953;28;2302;-45
2023/01/11 10:41:13;;;;;;;;;;;;;;;18.17;36.25;95615.44;10382110;28;2344;-46
2023/01/11 10:46:17;;;;;;;;;;;;;;;18.16;36.26;95621.72;10381420;28;2284;-44
2023/01/11 10:51:25;;;;;;;;;;;;;;;18.13;36.38;95614.38;10379002;28;2280;-44
2023/01/11 10:56:38;;;;;;;;;;;;;;;18.10;36.47;95605.19;10381181;28;2377;-46
2023/01/11 11:01:44;;;;;;;;;;;;;;;18.10;36.57;95586.03;10380115;28;2221;-45
2023/01/11 11:06:58;;;;;;;;;;;;;;;18.06;36.66;95585.78;10381917;28;2332;-45
2023/01/11 11:12:00;;;;;;;;;;;;;;;18.06;36.66;95582.34;10383984;28;2533;-46
2023/01/11 11:17:10;;;;;;;;;;;;;;;18.05;36.75;95575.53;10380237;28;2243;-45
2023/01/11 11:22:10;;;;;;;;;;;;;;;18.07;36.61;95574.25;10383119;28;2302;-46
2023/01/11 11:27:10;;;;;;;;;;;;;;;18.04;36.81;95584.44;10378610;28;2319;-47
2023/01/11 11:32:29;;;;;;;;;;;;;;;17.98;36.86;95570.56;10378695;28;2321;-45
2023/01/11 11:37:30;;;;;;;;;;;;;;;18.05;36.74;95555.34;10379359;28;2245;-45
2023/01/11 11:42:31;;;;;;;;;;;;;;;18.04;36.66;95545.09;10394263;28;2359;-46
2023/01/11 11:47:31;;;;;;;;;;;;;;;18.04;36.72;95545.91;10392261;28;2662;-47
2023/01/11 11:52:32;;;;;;;;;;;;;;;18.10;36.61;95541.44;10377220;28;2255;-45
2023/01/11 11:57:34;;;;;;;;;;;;;;;18.10;36.69;95533.56;10378394;28;2315;-45
2023/01/11 12:02:35;;;;;;;;;;;;;;;18.13;36.46;95531.22;10377098;28;2318;-44
2023/01/11 12:07:35;;;;;;;;;;;;;;;18.13;36.60;95510.25;10375688;28;2288;-47
2023/01/11 12:12:48;;;;;;;;;;;;;;;18.14;36.64;95511.00;10383559;28;2265;-47
2023/01/11 12:17:49;;;;;;;;;;;;;;;18.15;36.67;95507.34;10392234;28;2318;-45
2023/01/11 12:22:49;;;;;;;;;;;;;;;18.11;36.76;95511.53;10378526;28;2072;-45
2023/01/11 12:28:12;;;;;;;;;;;;;;;18.13;36.56;95506.81;10391268;28;2365;-45
2023/01/11 12:33:31;;;;;;;;;;;;;;;18.14;36.78;95500.50;10376558;28;2246;-47
2023/01/11 12:38:37;;;;;;;;;;;;;;;18.14;36.76;95492.66;10377231;28;2262;-46
2023/01/11 12:43:56;;;;;;;;;;;;;;;18.13;36.65;95498.94;10376803;28;2308;-45
2023/01/11 12:48:56;;;;;;;;;;;;;;;18.15;36.59;95491.59;10376805;28;2248;-46
2023/01/11 12:53:56;;;;;;;;;;;;;;;18.13;36.49;95484.00;10378495;28;2292;-47
2023/01/11 12:59:01;;;;;;;;;;;;;;;18.12;36.58;95481.63;10378501;28;2314;-45
2023/01/11 13:04:08;;;;;;;;;;;;;;;18.11;36.65;95486.13;10390602;28;2340;-46
2023/01/11 13:09:20;;;;;;;;;;;;;;;18.12;36.77;95476.38;10377093;28;2269;-48
2023/01/11 13:14:20;;;;;;;;;;;;;;;18.12;36.71;95465.88;10376411;28;2235;-45
2023/01/11 13:19:22;;;;;;;;;;;;;;;18.12;36.68;95460.66;10379587;28;2275;-45
2023/01/11 13:24:25;;;;;;;;;;;;;;;18.14;36.68;95458.53;10376808;28;2251;-46
2023/01/11 13:29:38;;;;;;;;;;;;;;;18.12;36.68;95461.44;10380615;28;2374;-48
2023/01/11 13:34:59;;;;;;;;;;;;;;;18.17;36.59;95463.28;10398714;28;2026;-49
2023/01/11 13:40:08;;;;;;;;;;;;;;;18.15;36.67;95460.91;10385377;28;2408;-46
2023/01/11 13:45:13;;;;;;;;;;;;;;;18.16;36.58;95472.19;10383495;28;2407;-48
2023/01/11 13:50:20;;;;;;;;;;;;;;;18.16;36.65;95478.22;10388346;28;2291;-46
2023/01/11 13:55:23;;;;;;;;;;;;;;;18.17;36.61;95481.63;10383723;28;2351;-47
2023/01/11 14:00:23;;;;;;;;;;;;;;;18.18;36.50;95476.13;10383937;28;2347;-46
2023/01/11 14:05:24;;;;;;;;;;;;;;;18.17;36.68;95492.13;10382510;28;2064;-47
2023/01/11 14:10:33;;;;;;;;;;;;;;;18.23;36.52;95501.56;10381738;28;2366;-47
2023/01/11 14:15:44;;;;;;;;;;;;;;;18.20;36.71;95504.69;10395884;28;2269;-49
2023/01/11 14:20:46;;;;;;;;;;;;;;;18.17;36.58;95511.28;10396213;28;2374;-46
2023/01/11 14:25:51;;;;;;;;;;;;;;;18.19;36.59;95497.91;10395451;28;2370;-47
2023/01/11 14:31:10;;;;;;;;;;;;;;;18.20;36.53;95517.81;10396646;28;2283;-46
2023/01/11 14:36:33;;;;;;;;;;;;;;;18.20;36.52;95528.31;10380691;28;2263;-48
2023/01/11 14:41:36;;;;;;;;;;;;;;;18.18;36.60;95533.03;10396817;28;1990;-45
2023/01/11 14:46:55;;;;;;;;;;;;;;;18.22;36.41;95528.84;10380244;28;2352;-50
2023/01/11 14:52:00;;;;;;;;;;;;;;;18.28;36.27;95525.19;10380478;28;2542;-45
2023/01/11 14:57:00;;;;;;;;;;;;;;;18.23;36.02;95536.47;10394582;28;2336;-45
2023/01/11 15:02:03;;;;;;;;;;;;;;;18.21;35.46;95537.78;10380196;28;2105;-48
2023/01/11 15:07:22;;;;;;;;;;;;;;;18.22;35.66;95544.56;10379789;28;2037;-45
2023/01/11 15:12:23;;;;;;;;;;;;;;;18.18;34.66;95541.69;10381506;28;2253;-46
2023/01/11 15:22:43;;;;;;;;;;;;;;;18.23;34.65;95546.16;10379113;28;2358;-46
2023/01/11 15:27:43;;;;;;;;;;;;;;;18.23;34.59;95546.97;10378816;28;2355;-46
2023/01/11 15:32:44;;;;;;;;;;;;;;;18.29;34.64;95550.34;10393692;28;2251;-45
2023/01/11 15:37:54;;;;;;;;;;;;;;;18.32;34.50;95557.72;10378536;28;2340;-46
2023/01/11 15:42:57;;;;;;;;;;;;;;;18.33;34.47;95561.91;10394038;28;2256;-49
2023/01/11 15:48:00;;;;;;;;;;;;;;;18.37;34.51;95568.19;10378093;28;2377;-45
2023/01/11 15:53:00;;;;;;;;;;;;;;;18.39;34.58;95579.22;10377218;28;2387;-48
2023/01/11 15:58:04;;;;;;;;;;;;;;;18.41;34.29;95582.34;10377758;28;2285;-47
2023/01/11 16:03:23;;;;;;;;;;;;;;;18.45;34.10;95596.56;10378182;28;2262;-49
2023/01/11 16:08:23;;;;;;;;;;;;;;;18.46;34.47;95603.41;10372502;28;2095;-45
2023/01/11 16:13:43;;;;;;;;;;;;;;;18.47;34.89;95610.22;10380349;28;2330;-45
2023/01/11 16:18:45;;;;;;;;;;;;;;;18.52;34.38;95612.84;10389072;28;2261;-45
2023/01/11 16:23:45;;;;;;;;;;;;;;;18.54;34.40;95622.03;10391015;28;2384;-45
2023/01/11 16:28:53;;;;;;;;;;;;;;;18.65;34.70;95628.03;10376192;28;2114;-49
2023/01/11 16:33:53;;;;;;;;;;;;;;;18.87;34.80;95640.91;10373631;28;2044;-47
2023/01/11 16:39:02;;;;;;;;;;;;;;;18.80;34.81;95641.16;10393033;28;2288;-46
2023/01/11 16:44:03;;;;;;;;;;;;;;;18.77;34.86;95652.22;10370495;28;2056;-47
2023/01/11 16:49:10;;;;;;;;;;;;;;;18.84;34.48;95657.97;10375015;28;2163;-45
2023/01/11 16:54:14;;;;;;;;;;;;;;;18.90;35.53;95661.41;10372061;28;2279;-45
2023/01/11 16:59:17;;;;;;;;;;;;;;;19.00;35.95;95672.66;10372476;28;2294;-47
2023/01/11 17:04:25;;;;;;;;;;;;;;;18.94;34.43;95676.34;10378864;28;2295;-46
2023/01/11 17:09:28;;;;;;;;;;;;;;;18.85;34.26;95683.19;10384826;28;2368;-46
2023/01/11 17:14:47;;;;;;;;;;;;;;;18.84;34.49;95692.09;10381293;28;2033;-45
2023/01/11 17:19:48;;;;;;;;;;;;;;;18.84;34.31;95689.47;10379578;28;2338;-45
2023/01/11 17:24:58;;;;;;;;;;;;;;;18.85;34.53;95706.84;10366289;28;2325;-45
2023/01/11 17:29:58;;;;;;;;;;;;;;;18.93;34.35;95706.28;10380384;28;2290;-45
2023/01/11 17:35:00;;;;;;;;;;;;;;;18.97;34.58;95714.44;10397978;28;2320;-45
2023/01/11 17:40:00;;;;;;;;;;;;;;;18.96;34.29;95718.13;10399000;28;2607;-45
2023/01/11 17:45:11;;;;;;;;;;;;;;;18.97;34.37;95736.25;10381252;28;2328;-44
2023/01/11 17:50:21;;;;;;;;;;;;;;;19.03;34.50;95752.78;10406280;28;1930;-44
2023/01/11 17:55:22;;;;;;;;;;;;;;;19.02;34.21;95759.88;10399901;28;2473;-46
2023/01/11 18:00:23;;;;;;;;;;;;;;;19.04;34.34;95765.66;10404606;28;1896;-44
2023/01/11 18:05:24;;;;;;;;;;;;;;;19.05;34.31;95772.50;10413712;28;2340;-47
2023/01/11 18:10:25;;;;;;;;;;;;;;;19.06;34.46;95768.03;10408572;28;1909;-45
2023/01/11 18:15:35;;;;;;;;;;;;;;;19.06;34.47;95768.78;10402570;28;2342;-46
2023/01/11 18:20:36;;;;;;;;;;;;;;;19.08;34.52;95782.47;10405069;28;1935;-46
2023/01/11 18:25:36;;;;;;;;;;;;;;;19.09;34.25;95794.56;10399772;28;2310;-48
2023/01/11 18:30:37;;;;;;;;;;;;;;;19.14;34.83;95785.88;10402853;28;1897;-44
2023/01/11 18:35:42;;;;;;;;;;;;;;;19.23;35.18;95798.22;10401749;28;2632;-48
2023/01/11 18:40:43;;;;;;;;;;;;;;;19.17;34.35;95801.13;10401627;28;1834;-45
2023/01/11 18:45:43;;;;;;;;;;;;;;;19.21;34.67;95812.69;10404897;28;2412;-44
2023/01/11 18:50:43;;;;;;;;;;;;;;;19.13;36.38;95821.88;10406338;28;2248;-47
2023/01/11 18:55:44;;;;;;;;;;;;;;;19.08;39.33;95821.88;10401923;28;2356;-46
2023/01/11 19:00:44;;;;;;;;;;;;;;;19.09;40.00;95827.91;10395043;28;2285;-46
2023/01/11 19:05:45;;;;;;;;;;;;;;;19.04;39.44;95828.69;10404153;28;2319;-46
2023/01/11 19:10:47;;;;;;;;;;;;;;;19.04;39.31;95830.56;10395312;28;2347;-45
2023/01/11 19:15:47;;;;;;;;;;;;;;;19.03;39.14;95835.00;10406592;28;2636;-43
2023/01/11 19:20:47;;;;;;;;;;;;;;;19.01;39.83;95842.38;10399595;28;2337;-44
2023/01/11 19:25:54;;;;;;;;;;;;;;;19.01;39.58;95850.25;10401626;28;2399;-45
2023/01/11 19:30:54;;;;;;;;;;;;;;;19.02;39.67;95857.06;10401955;28;2292;-46
2023/01/11 19:35:54;;;;;;;;;;;;;;;19.03;39.89;95865.75;10393953;28;2612;-46
2023/01/11 19:40:55;;;;;;;;;;;;;;;19.02;39.75;95875.47;10396534;28;2353;-46
2023/01/11 19:45:55;;;;;;;;;;;;;;;19.03;40.04;95871.78;10401640;28;2279;-45
2023/01/11 19:51:07;;;;;;;;;;;;;;;19.03;40.21;95884.13;10404182;28;1888;-48
2023/01/11 19:56:07;;;;;;;;;;;;;;;19.03;40.41;95882.31;10405042;28;1834;-45
2023/01/11 20:01:09;;;;;;;;;;;;;;;19.03;40.35;95892.81;10395740;28;2397;-45
2023/01/11 20:06:09;;;;;;;;;;;;;;;19.01;39.97;95899.38;10389359;28;2474;-45
2023/01/11 20:11:11;;;;;;;;;;;;;;;19.05;40.17;95900.44;10391874;28;2264;-47
2023/01/11 20:16:12;;;;;;;;;;;;;;;19.04;40.03;95910.13;10386438;28;2392;-44
2023/01/11 20:21:12;;;;;;;;;;;;;;;19.04;39.92;95904.88;10388140;28;2316;-44
2023/01/11 20:26:15;;;;;;;;;;;;;;;19.05;39.89;95906.47;10403816;28;2345;-44
2023/01/11 20:31:16;;;;;;;;;;;;;;;19.07;40.60;95914.88;10398054;28;2353;-44
2023/01/11 20:36:17;;;;;;;;;;;;;;;19.07;40.34;95919.34;10394441;28;1885;-43
2023/01/11 20:46:37;;;;;;;;;;;;;;;19.08;40.21;95940.09;10406967;28;1981;-45
2023/01/11 20:51:37;;;;;;;;;;;;;;;19.06;39.96;95938.81;10405441;28;2391;-42
2023/01/11 20:56:37;;;;;;;;;;;;;;;19.05;39.71;95943.25;10408599;28;1892;-46
2023/01/11 21:01:37;;;;;;;;;;;;;;;19.03;39.59;95939.31;10409823;28;2312;-42
2023/01/11 21:06:38;;;;;;;;;;;;;;;19.02;39.52;95945.63;10402972;28;2319;-45
2023/01/11 21:11:39;;;;;;;;;;;;;;;19.00;39.00;95940.59;10408505;28;2418;-43
2023/01/11 21:16:39;;;;;;;;;;;;;;;19.12;40.04;95932.50;10392057;28;2401;-42
2023/01/11 21:21:40;;;;;;;;;;;;;;;19.10;40.40;95927.50;10384210;28;2260;-45
2023/01/11 21:26:41;;;;;;;;;;;;;;;19.02;39.19;95932.50;10384656;28;2092;-45
2023/01/11 21:31:41;;;;;;;;;;;;;;;18.97;39.31;95938.50;10383637;28;2320;-43
2023/01/11 21:36:41;;;;;;;;;;;;;;;18.94;39.30;95941.63;10382919;28;1984;-42
2023/01/11 21:41:53;;;;;;;;;;;;;;;18.91;38.74;95951.88;10386413;28;2330;-43
2023/01/11 21:46:54;;;;;;;;;;;;;;;18.88;38.97;95952.38;10381260;28;2353;-42
2023/01/11 21:51:54;;;;;;;;;;;;;;;18.85;39.11;95969.47;10380206;28;2242;-42
2023/01/11 21:56:55;;;;;;;;;;;;;;;18.80;39.00;95982.56;10382632;28;2333;-46
2023/01/11 22:01:55;;;;;;;;;;;;;;;18.80;39.31;95993.06;10383129;28;2365;-43
2023/01/11 22:06:55;;;;;;;;;;;;;;;18.78;39.33;95999.63;10382894;28;2361;-43
2023/01/11 22:11:55;;;;;;;;;;;;;;;18.74;38.96;95994.09;10386979;28;2304;-45
2023/01/11 22:16:56;;;;;;;;;;;;;;;18.74;39.46;96009.84;10381985;28;2243;-44
2023/01/11 22:21:56;;;;;;;;;;;;;;;18.72;39.13;96008.50;10380095;28;2331;-43
2023/01/11 22:26:57;;;;;;;;;;;;;;;18.68;38.98;96014.28;10382465;28;2320;-42
2023/01/11 22:32:00;;;;;;;;;;;;;;;18.69;39.27;96022.97;10381889;28;2265;-44
2023/01/11 22:37:00;;;;;;;;;;;;;;;18.68;39.46;96024.81;10380563;28;2369;-39
2023/01/11 22:42:00;;;;;;;;;;;;;;;18.69;39.58;96031.63;10382866;28;1976;-43
2023/01/11 22:47:00;;;;;;;;;;;;;;;18.70;39.36;96037.66;10380938;28;2398;-42
2023/01/11 22:52:01;;;;;;;;;;;;;;;18.67;39.21;96032.91;10381448;28;2278;-42
2023/01/11 22:57:01;;;;;;;;;;;;;;;18.67;39.56;96027.66;10383451;28;2326;-43
2023/01/11 23:02:01;;;;;;;;;;;;;;;18.66;39.31;96028.72;10381110;28;2080;-42
2023/01/11 23:07:03;;;;;;;;;;;;;;;18.64;39.36;96034.22;10380063;28;2085;-42
2023/01/11 23:17:22;;;;;;;;;;;;;;;18.62;39.23;96038.94;10379751;28;2289;-43
2023/01/11 23:22:22;;;;;;;;;;;;;;;18.58;39.19;96050.19;10379587;28;2025;-42
2023/01/11 23:27:22;;;;;;;;;;;;;;;18.56;39.15;96060.16;10376793;28;1981;-42
2023/01/11 23:32:23;;;;;;;;;;;;;;;18.55;39.07;96063.81;10379901;28;2316;-43
2023/01/11 23:37:23;;;;;;;;;;;;;;;18.54;39.07;96062.25;10379868;28;2320;-44
2023/01/11 23:42:26;;;;;;;;;;;;;;;18.51;39.07;96070.63;10381406;28;2350;-42
2023/01/11 23:47:28;;;;;;;;;;;;;;;18.51;39.24;96065.38;10377653;28;2642;-42
2023/01/11 23:52:29;;;;;;;;;;;;;;;18.48;38.96;96058.00;10376029;28;2597;-42
2023/01/11 23:57:29;;;;;;;;;;;;;;;18.46;38.96;96062.72;10377714;28;2589;-43
